createdAt,value
2023-05-15T00:00:46.196Z,100200.06
2023-05-15T00:03:13.793Z,100192.59
2023-05-15T00:05:41.113Z,100195.56
2023-05-15T00:08:08.420Z,100189.41
2023-05-15T00:10:35.927Z,100186.53
2023-05-15T00:13:03.269Z,100189.50
2023-05-15T00:15:30.598Z,100185.56
2023-05-15T00:17:57.956Z,100183.88
2023-05-15T00:20:25.288Z,100180.69
2023-05-15T00:22:52.662Z,100185.00
2023-05-15T00:25:20.004Z,100178.75
2023-05-15T00:27:47.290Z,100173.34
2023-05-15T00:30:14.788Z,100173.50
2023-05-15T00:32:42.522Z,100169.28
2023-05-15T00:35:09.967Z,100178.13
2023-05-15T00:37:37.477Z,100172.09
2023-05-15T00:40:05.127Z,100177.59
2023-05-15T00:42:32.534Z,100179.72
2023-05-15T00:45:01.307Z,100169.28
2023-05-15T00:47:29.315Z,100170.69
2023-05-15T00:49:57.346Z,100169.19
2023-05-15T00:52:25.333Z,100175.84
2023-05-15T00:54:52.676Z,100172.75
2023-05-15T00:57:21.458Z,100172.16
2023-05-15T00:59:49.964Z,100169.38
2023-05-15T01:02:18.625Z,100163.38
2023-05-15T01:04:46.148Z,100164.97
2023-05-15T01:07:15.050Z,100158.16
2023-05-15T01:09:43.533Z,100161.47
2023-05-15T01:12:11.556Z,100157.47
2023-05-15T01:14:38.977Z,100160.13
2023-05-15T01:17:07.149Z,100163.06
2023-05-15T01:19:36.157Z,100159.44
2023-05-15T01:22:03.398Z,100152.22
2023-05-15T01:24:38.644Z,100152.94
2023-05-15T01:27:05.854Z,100160.91
2023-05-15T01:29:41.435Z,100153.47
2023-05-15T01:32:24.522Z,100163.44
2023-05-15T01:34:51.804Z,100155.38
2023-05-15T01:37:22.127Z,100158.56
2023-05-15T01:39:52.906Z,100150.66
2023-05-15T01:42:20.728Z,100146.50
2023-05-15T01:44:52.933Z,100149.31
2023-05-15T01:47:22.217Z,100150.03
2023-05-15T01:49:51.093Z,100147.09
2023-05-15T01:52:20.800Z,100153.28
2023-05-15T01:54:49.437Z,100146.41
2023-05-15T01:57:17.166Z,100151.34
2023-05-15T01:59:46.020Z,100156.97
2023-05-15T02:02:14.090Z,100144.81
2023-05-15T02:04:41.871Z,100143.13
2023-05-15T02:07:09.237Z,100147.81
2023-05-15T02:09:36.985Z,100147.22
2023-05-15T02:12:05.332Z,100145.34
2023-05-15T02:14:32.594Z,100141.66
2023-05-15T02:16:59.839Z,100147.22
2023-05-15T02:19:27.589Z,100147.38
2023-05-15T02:21:54.926Z,100149.03
2023-05-15T02:24:22.151Z,100141.88
2023-05-15T02:26:59.913Z,100143.31
2023-05-15T02:29:45.787Z,100139.94
2023-05-15T02:32:18.585Z,100137.44
2023-05-15T02:34:53.275Z,100148.19
2023-05-15T02:37:24.714Z,100145.63
2023-05-15T02:39:54.587Z,100143.00
2023-05-15T02:42:22.024Z,100136.94
2023-05-15T02:44:49.574Z,100135.06
2023-05-15T02:47:17.718Z,100132.00
2023-05-15T02:49:45.466Z,100133.13
2023-05-15T02:52:13.073Z,100133.38
2023-05-15T02:54:41.029Z,100132.81
2023-05-15T02:57:08.203Z,100137.91
2023-05-15T02:59:35.780Z,100130.72
2023-05-15T03:02:03.767Z,100135.59
2023-05-15T03:04:31.052Z,100132.81
2023-05-15T03:06:58.269Z,100130.88
2023-05-15T03:09:25.631Z,100135.47
2023-05-15T03:11:52.763Z,100133.28
2023-05-15T03:14:20.107Z,100136.97
2023-05-15T03:16:47.294Z,100136.34
2023-05-15T03:19:14.695Z,100134.09
2023-05-15T03:21:42.009Z,100132.03
2023-05-15T03:24:09.436Z,100126.06
2023-05-15T03:26:36.865Z,100132.97
2023-05-15T03:29:04.200Z,100139.94
2023-05-15T03:31:31.534Z,100139.28
2023-05-15T03:33:58.773Z,100135.72
2023-05-15T03:36:26.010Z,100135.38
2023-05-15T03:38:53.243Z,100143.19
2023-05-15T03:41:21.450Z,100135.66
2023-05-15T03:43:49.253Z,100138.34
2023-05-15T03:46:19.140Z,100136.47
2023-05-15T03:48:47.720Z,100132.78
2023-05-15T03:51:15.033Z,100140.09
2023-05-15T03:53:42.338Z,100141.28
2023-05-15T03:56:09.833Z,100137.09
2023-05-15T03:58:37.054Z,100144.44
2023-05-15T04:01:04.257Z,100136.84
2023-05-15T04:03:31.425Z,100134.72
2023-05-15T04:05:58.671Z,100130.72
2023-05-15T04:08:26.408Z,100136.34
2023-05-15T04:10:54.473Z,100129.44
2023-05-15T04:13:21.786Z,100132.31
2023-05-15T04:15:48.980Z,100124.72
2023-05-15T04:18:16.252Z,100127.00
2023-05-15T04:20:43.422Z,100129.56
2023-05-15T04:23:10.657Z,100128.72
2023-05-15T04:25:37.963Z,100134.34
2023-05-15T04:28:05.305Z,100142.28
2023-05-15T04:30:32.519Z,100142.84
2023-05-15T04:32:59.750Z,100151.56
2023-05-15T04:35:27.128Z,100152.00
2023-05-15T04:37:54.478Z,100151.91
2023-05-15T04:40:21.865Z,100159.13
2023-05-15T04:42:49.040Z,100156.13
2023-05-15T04:45:16.259Z,100156.69
2023-05-15T04:47:43.505Z,100156.19
2023-05-15T04:50:10.888Z,100151.59
2023-05-15T04:52:38.311Z,100152.44
2023-05-15T04:55:05.785Z,100155.19
2023-05-15T04:57:33.065Z,100148.44
2023-05-15T05:00:00.390Z,100153.69
2023-05-15T05:02:27.765Z,100147.78
2023-05-15T05:04:55.122Z,100146.91
2023-05-15T05:07:22.475Z,100151.94
2023-05-15T05:09:49.791Z,100155.91
2023-05-15T05:12:17.051Z,100158.00
2023-05-15T05:14:44.976Z,100158.78
2023-05-15T05:17:12.430Z,100167.19
2023-05-15T05:19:39.729Z,100171.31
2023-05-15T05:22:07.879Z,100168.97
2023-05-15T05:24:37.590Z,100167.06
2023-05-15T05:27:05.656Z,100156.81
2023-05-15T05:29:33.219Z,100162.75
2023-05-15T05:32:00.812Z,100165.28
2023-05-15T05:34:28.214Z,100161.13
2023-05-15T05:36:55.430Z,100168.94
2023-05-15T05:39:22.641Z,100160.00
2023-05-15T05:41:49.830Z,100162.50
2023-05-15T05:44:17.025Z,100163.69
2023-05-15T05:46:45.588Z,100164.19
2023-05-15T05:49:13.166Z,100163.13
2023-05-15T05:51:40.393Z,100158.13
2023-05-15T05:54:07.602Z,100158.63
2023-05-15T05:56:34.881Z,100165.84
2023-05-15T05:59:02.404Z,100154.88
2023-05-15T06:01:29.717Z,100168.38
2023-05-15T06:03:57.562Z,100165.66
2023-05-15T06:06:24.998Z,100161.38
2023-05-15T06:08:54.170Z,100163.31
2023-05-15T06:11:25.112Z,100159.38
2023-05-15T06:13:52.945Z,100156.56
2023-05-15T06:16:20.284Z,100153.56
2023-05-15T06:18:47.563Z,100152.31
2023-05-15T06:21:14.895Z,100161.91
2023-05-15T06:23:42.106Z,100165.50
2023-05-15T06:26:09.525Z,100166.31
2023-05-15T06:28:36.680Z,100167.53
2023-05-15T06:31:04.222Z,100169.22
2023-05-15T06:33:31.631Z,100171.47
2023-05-15T06:35:58.879Z,100161.28
2023-05-15T06:38:26.652Z,100157.66
2023-05-15T06:40:53.837Z,100161.78
2023-05-15T06:43:21.061Z,100169.34
2023-05-15T06:45:49.076Z,100151.25
2023-05-15T06:48:16.254Z,100158.84
2023-05-15T06:50:43.643Z,100153.88
2023-05-15T06:53:12.258Z,100147.75
2023-05-15T06:55:41.126Z,100153.66
2023-05-15T06:58:08.397Z,100152.34
2023-05-15T07:00:36.018Z,100154.44
2023-05-15T07:03:03.362Z,100156.50
2023-05-15T07:05:30.953Z,100157.59
2023-05-15T07:07:58.328Z,100157.03
2023-05-15T07:10:25.776Z,100159.38
2023-05-15T07:12:53.505Z,100157.69
2023-05-15T07:15:20.813Z,100160.34
2023-05-15T07:17:48.248Z,100171.50
2023-05-15T07:20:15.864Z,100166.09
2023-05-15T07:22:55.134Z,100158.66
2023-05-15T07:25:24.667Z,100150.53
2023-05-15T07:27:52.256Z,100151.81
2023-05-15T07:30:19.510Z,100166.69
2023-05-15T07:32:49.057Z,100163.28
2023-05-15T07:35:16.772Z,100161.66
2023-05-15T07:37:44.007Z,100166.56
2023-05-15T07:40:11.528Z,100157.88
2023-05-15T07:42:39.861Z,100162.59
2023-05-15T07:45:07.512Z,100169.97
2023-05-15T07:47:35.842Z,100167.59
2023-05-15T07:50:03.293Z,100157.50
2023-05-15T07:52:30.783Z,100172.31
2023-05-15T07:54:58.292Z,100167.63
2023-05-15T07:57:26.624Z,100157.59
2023-05-15T07:59:53.899Z,100155.06
2023-05-15T08:02:21.372Z,100160.94
2023-05-15T08:04:48.718Z,100171.06
2023-05-15T08:07:16.304Z,100164.50
2023-05-15T08:09:43.643Z,100155.56
2023-05-15T08:12:17.822Z,100156.31
2023-05-15T08:14:45.208Z,100166.97
2023-05-15T08:17:12.585Z,100156.00
2023-05-15T08:19:39.820Z,100159.09
2023-05-15T08:22:07.143Z,100160.50
2023-05-15T08:24:34.537Z,100166.94
2023-05-15T08:27:01.746Z,100155.38
2023-05-15T08:29:29.094Z,100150.91
2023-05-15T08:31:56.352Z,100138.84
2023-05-15T08:34:23.627Z,100139.63
2023-05-15T08:36:51.044Z,100132.59
2023-05-15T08:39:18.243Z,100128.34
2023-05-15T08:41:56.058Z,100150.44
2023-05-15T08:44:23.906Z,100155.00
2023-05-15T08:46:52.523Z,100157.94
2023-05-15T08:49:33.074Z,100157.00
2023-05-15T08:52:00.593Z,100152.56
2023-05-15T08:54:28.458Z,100153.13
2023-05-15T08:56:55.789Z,100150.34
2023-05-15T08:59:23.344Z,100165.13
2023-05-15T09:01:51.042Z,100180.38
2023-05-15T09:04:18.863Z,100172.28
2023-05-15T09:06:47.657Z,100177.91
2023-05-15T09:09:15.323Z,100178.78
2023-05-15T09:11:45.803Z,100173.97
2023-05-15T09:14:13.007Z,100175.59
2023-05-15T09:16:40.411Z,100187.34
2023-05-15T09:19:08.071Z,100185.38
2023-05-15T09:21:35.463Z,100186.81
2023-05-15T09:24:21.682Z,100176.66
2023-05-15T09:27:05.344Z,100188.63
2023-05-15T09:29:34.016Z,100186.13
2023-05-15T09:32:05.055Z,100180.66
2023-05-15T09:34:34.219Z,100166.91
2023-05-15T09:37:02.945Z,100168.44
2023-05-15T09:39:30.683Z,100175.50
2023-05-15T09:42:07.881Z,100182.97
2023-05-15T09:44:35.292Z,100186.28
2023-05-15T09:47:05.551Z,100192.84
2023-05-15T09:49:33.445Z,100193.75
2023-05-15T09:52:01.168Z,100187.00
2023-05-15T09:54:30.158Z,100181.66
2023-05-15T09:57:07.276Z,100176.69
2023-05-15T09:59:34.832Z,100175.63
2023-05-15T10:02:02.346Z,100177.25
2023-05-15T10:04:35.040Z,100174.31
2023-05-15T10:07:02.420Z,100185.34
2023-05-15T10:09:31.658Z,100184.81
2023-05-15T10:11:59.235Z,100181.44
2023-05-15T10:14:28.048Z,100175.50
2023-05-15T10:16:55.858Z,100177.88
2023-05-15T10:19:24.916Z,100180.22
2023-05-15T10:21:53.297Z,100171.66
2023-05-15T10:24:21.567Z,100161.53
2023-05-15T10:26:49.294Z,100171.06
2023-05-15T10:29:18.457Z,100170.03
2023-05-15T10:31:46.349Z,100166.50
2023-05-15T10:34:14.248Z,100176.91
2023-05-15T10:36:43.146Z,100179.06
2023-05-15T10:39:10.621Z,100168.09
2023-05-15T10:41:39.018Z,100173.94
2023-05-15T10:44:06.724Z,100164.31
2023-05-15T10:46:35.639Z,100163.28
2023-05-15T10:49:04.102Z,100167.72
2023-05-15T10:51:33.005Z,100180.25
2023-05-15T10:54:01.270Z,100163.63
2023-05-15T10:56:32.205Z,100161.09
2023-05-15T10:59:05.227Z,100146.69
2023-05-15T11:01:33.285Z,100143.78
2023-05-15T11:04:10.767Z,100124.94
2023-05-15T11:06:38.787Z,100116.41
2023-05-15T11:09:27.233Z,100122.19
2023-05-15T11:11:57.167Z,100113.97
2023-05-15T11:14:25.819Z,100108.06
2023-05-15T11:16:53.446Z,100106.19
2023-05-15T11:19:24.607Z,100097.53
2023-05-15T11:22:10.339Z,100090.81
2023-05-15T11:24:56.095Z,100091.44
2023-05-15T11:27:24.459Z,100097.72
2023-05-15T11:30:10.580Z,100099.03
2023-05-15T11:32:41.586Z,100107.84
2023-05-15T11:35:19.338Z,100107.56
2023-05-15T11:37:47.794Z,100104.81
2023-05-15T11:40:19.960Z,100101.53
2023-05-15T11:43:07.615Z,100100.50
2023-05-15T11:45:35.999Z,100087.50
2023-05-15T11:48:04.526Z,100091.56
2023-05-15T11:50:33.337Z,100090.03
2023-05-15T11:53:04.648Z,100098.00
2023-05-15T11:55:33.084Z,100092.66
2023-05-15T11:58:00.785Z,100098.38
2023-05-15T12:00:28.188Z,100104.78
2023-05-15T12:02:55.821Z,100092.50
2023-05-15T12:05:23.742Z,100090.47
2023-05-15T12:07:51.271Z,100084.81
2023-05-15T12:10:18.702Z,100076.50
2023-05-15T12:12:46.576Z,100081.81
2023-05-15T12:15:14.548Z,100063.94
2023-05-15T12:17:43.004Z,100066.47
2023-05-15T12:20:12.472Z,100066.38
2023-05-15T12:22:39.912Z,100064.31
2023-05-15T12:25:07.991Z,100058.16
2023-05-15T12:27:36.409Z,100056.94
2023-05-15T12:30:04.374Z,100047.53
2023-05-15T12:32:32.284Z,100046.66
2023-05-15T12:35:00.195Z,100054.03
2023-05-15T12:37:28.222Z,100056.09
2023-05-15T12:40:11.901Z,100042.44
2023-05-15T12:43:05.492Z,100054.34
2023-05-15T12:45:42.092Z,100050.06
2023-05-15T12:48:14.284Z,100049.34
2023-05-15T12:50:44.160Z,100044.53
2023-05-15T12:53:25.798Z,100051.06
2023-05-15T12:55:56.382Z,100048.38
2023-05-15T12:58:23.734Z,100049.69
2023-05-15T13:00:51.707Z,100047.06
2023-05-15T13:03:20.558Z,100045.56
2023-05-15T13:05:48.303Z,100050.19
2023-05-15T13:08:17.540Z,100041.22
2023-05-15T13:10:45.273Z,100042.13
2023-05-15T13:13:13.182Z,100033.31
2023-05-15T13:15:43.146Z,100031.22
2023-05-15T13:18:10.547Z,100039.22
2023-05-15T13:20:42.414Z,100025.47
2023-05-15T13:23:11.066Z,100020.50
2023-05-15T13:25:38.612Z,100021.69
2023-05-15T13:28:06.974Z,100013.47
2023-05-15T13:30:35.446Z,100012.81
2023-05-15T13:33:03.019Z,100009.94
2023-05-15T13:35:30.728Z,100016.81
2023-05-15T13:38:01.639Z,100022.81
2023-05-15T13:40:29.284Z,100016.59
2023-05-15T13:42:56.505Z,100020.97
2023-05-15T13:45:23.825Z,100027.41
2023-05-15T13:47:51.744Z,100015.38
2023-05-15T13:50:19.143Z,100012.50
2023-05-15T13:52:46.740Z,100011.53
2023-05-15T13:55:14.190Z,100012.19
2023-05-15T13:57:42.130Z,100012.41
2023-05-15T14:00:13.002Z,100016.44
2023-05-15T14:02:41.592Z,100002.59
2023-05-15T14:05:09.997Z,99999.69
2023-05-15T14:07:37.452Z,99999.06
2023-05-15T14:10:05.388Z,99994.44
2023-05-15T14:12:33.220Z,100005.50
2023-05-15T14:15:01.081Z,99997.09
2023-05-15T14:17:28.872Z,100001.06
2023-05-15T14:19:56.215Z,99991.84
2023-05-15T14:22:25.151Z,99988.28
2023-05-15T14:24:52.957Z,99992.28
2023-05-15T14:27:20.388Z,99984.88
2023-05-15T14:29:49.339Z,99981.13
2023-05-15T14:32:17.388Z,99981.16
2023-05-15T14:35:09.484Z,99983.28
2023-05-15T14:37:36.793Z,99995.25
2023-05-15T14:40:05.128Z,99999.84
2023-05-15T14:42:32.706Z,100001.09
2023-05-15T14:45:00.141Z,100005.91
2023-05-15T14:47:28.556Z,99999.19
2023-05-15T14:49:55.961Z,100005.38
2023-05-15T14:52:23.298Z,100006.38
2023-05-15T14:55:04.772Z,99999.31
2023-05-15T14:57:35.897Z,99995.75
2023-05-15T15:00:04.765Z,100001.88
2023-05-15T15:02:32.419Z,100000.94
2023-05-15T15:04:59.837Z,100003.56
2023-05-15T15:07:28.887Z,100007.31
2023-05-15T15:09:56.119Z,100000.59
2023-05-15T15:12:23.437Z,100006.00
2023-05-15T15:14:50.613Z,100006.22
2023-05-15T15:17:18.429Z,99999.47
2023-05-15T15:19:45.678Z,100000.31
2023-05-15T15:22:12.895Z,100000.34
2023-05-15T15:24:40.148Z,99991.63
2023-05-15T15:27:07.386Z,99994.84
2023-05-15T15:29:34.512Z,99997.06
2023-05-15T15:32:01.818Z,100001.75
2023-05-15T15:34:29.075Z,100006.44
2023-05-15T15:36:56.442Z,99999.19
2023-05-15T15:39:23.631Z,100009.59
2023-05-15T15:41:50.899Z,100009.66
2023-05-15T15:44:18.134Z,100013.78
2023-05-15T15:46:45.454Z,100010.16
2023-05-15T15:49:12.805Z,100004.84
2023-05-15T15:51:41.321Z,100004.63
2023-05-15T15:54:26.933Z,100004.28
2023-05-15T15:56:54.303Z,100014.19
2023-05-15T15:59:21.755Z,100011.53
2023-05-15T16:01:48.939Z,100012.16
2023-05-15T16:04:16.698Z,100010.53
2023-05-15T16:06:44.243Z,99999.94
2023-05-15T16:09:11.827Z,99996.94
2023-05-15T16:11:39.200Z,99997.38
2023-05-15T16:14:06.462Z,100000.91
2023-05-15T16:16:33.912Z,99989.00
2023-05-15T16:19:01.257Z,99986.00
2023-05-15T16:21:28.701Z,99988.44
2023-05-15T16:23:55.891Z,99980.50
2023-05-15T16:26:23.041Z,99977.66
2023-05-15T16:28:50.866Z,99979.53
2023-05-15T16:31:18.107Z,99973.06
2023-05-15T16:33:46.031Z,99974.25
2023-05-15T16:36:13.392Z,99959.59
2023-05-15T16:38:40.734Z,99958.50
2023-05-15T16:41:07.925Z,99958.66
2023-05-15T16:43:35.450Z,99962.34
2023-05-15T16:46:02.923Z,99959.03
2023-05-15T16:48:30.390Z,99965.28
2023-05-15T16:50:57.532Z,99959.38
2023-05-15T16:53:24.826Z,99947.72
2023-05-15T16:55:52.841Z,99964.44
2023-05-15T16:58:20.229Z,99963.94
2023-05-15T17:00:47.403Z,99948.16
2023-05-15T17:03:14.664Z,99949.91
2023-05-15T17:05:42.000Z,99945.72
2023-05-15T17:08:09.170Z,99946.91
2023-05-15T17:10:36.352Z,99952.47
2023-05-15T17:13:04.593Z,99951.78
2023-05-15T17:15:31.969Z,99944.41
2023-05-15T17:17:59.366Z,99941.91
2023-05-15T17:20:26.966Z,99944.78
2023-05-15T17:22:54.096Z,99941.75
2023-05-15T17:25:21.297Z,99940.03
2023-05-15T17:27:48.774Z,99935.81
2023-05-15T17:30:16.195Z,99935.59
2023-05-15T17:32:43.431Z,99926.91
2023-05-15T17:35:11.053Z,99922.00
2023-05-15T17:37:38.452Z,99925.88
2023-05-15T17:40:06.327Z,99931.63
2023-05-15T17:42:33.573Z,99930.31
2023-05-15T17:45:00.854Z,99937.28
2023-05-15T17:47:28.188Z,99937.84
2023-05-15T17:49:55.622Z,99931.66
2023-05-15T17:52:22.880Z,99939.97
2023-05-15T17:54:50.146Z,99929.56
2023-05-15T17:57:17.434Z,99929.34
2023-05-15T17:59:44.628Z,99933.38
2023-05-15T18:02:11.982Z,99941.22
2023-05-15T18:04:43.597Z,99940.69
2023-05-15T18:07:13.722Z,99934.69
2023-05-15T18:09:42.746Z,99943.72
2023-05-15T18:12:10.044Z,99944.75
2023-05-15T18:14:39.217Z,99946.94
2023-05-15T18:17:14.922Z,99944.53
2023-05-15T18:19:45.215Z,99961.84
2023-05-15T18:22:16.887Z,99948.75
2023-05-15T18:24:45.336Z,99955.53
2023-05-15T18:27:19.326Z,99955.81
2023-05-15T18:29:47.567Z,99944.66
2023-05-15T18:32:15.141Z,99933.75
2023-05-15T18:34:50.394Z,99937.97
2023-05-15T18:37:28.172Z,99931.53
2023-05-15T18:40:03.513Z,99934.38
2023-05-15T18:42:32.273Z,99944.34
2023-05-15T18:45:03.572Z,99935.53
2023-05-15T18:47:32.230Z,99938.84
2023-05-15T18:50:22.772Z,99942.94
2023-05-15T18:52:56.622Z,99936.97
2023-05-15T18:55:34.573Z,99942.13
2023-05-15T18:58:16.401Z,99938.78
2023-05-15T19:01:04.175Z,99940.16
2023-05-15T19:03:37.213Z,99942.47
2023-05-15T19:06:04.512Z,99943.38
2023-05-15T19:08:31.841Z,99946.91
2023-05-15T19:11:01.364Z,99948.31
2023-05-15T19:13:34.054Z,99953.69
2023-05-15T19:16:01.409Z,99952.91
2023-05-15T19:18:28.754Z,99956.19
2023-05-15T19:20:56.865Z,99957.53
2023-05-15T19:23:24.649Z,99960.69
2023-05-15T19:25:52.125Z,99968.63
2023-05-15T19:28:19.867Z,99968.72
2023-05-15T19:30:47.214Z,99973.72
2023-05-15T19:33:17.512Z,99971.16
2023-05-15T19:35:44.891Z,99977.13
2023-05-15T19:38:12.364Z,99983.50
2023-05-15T19:40:42.750Z,99971.72
2023-05-15T19:43:11.437Z,99982.66
2023-05-15T19:45:44.650Z,99977.41
2023-05-15T19:48:12.092Z,99974.47
2023-05-15T19:50:39.862Z,99976.19
2023-05-15T19:53:07.697Z,99977.16
2023-05-15T19:55:35.314Z,99978.44
2023-05-15T19:58:02.651Z,99986.63
2023-05-15T20:00:30.024Z,99995.13
2023-05-15T20:02:57.651Z,99981.38
2023-05-15T20:05:25.014Z,99984.97
2023-05-15T20:08:18.734Z,99989.56
2023-05-15T20:11:14.156Z,99983.69
2023-05-15T20:13:41.584Z,99985.34
2023-05-15T20:16:10.867Z,99982.06
2023-05-15T20:18:39.831Z,99992.72
2023-05-15T20:21:07.372Z,99988.50
2023-05-15T20:23:34.685Z,99992.97
2023-05-15T20:26:02.381Z,99989.63
2023-05-15T20:28:29.877Z,99997.13
2023-05-15T20:30:57.300Z,99982.31
2023-05-15T20:33:25.321Z,99973.00
2023-05-15T20:35:54.087Z,99976.47
2023-05-15T20:38:22.988Z,99981.50
2023-05-15T20:40:50.667Z,99975.63
2023-05-15T20:43:18.510Z,99983.38
2023-05-15T20:45:50.139Z,99981.72
2023-05-15T20:48:17.715Z,99966.91
2023-05-15T20:50:45.016Z,99968.94
2023-05-15T20:53:12.297Z,99971.50
2023-05-15T20:55:39.567Z,99972.69
2023-05-15T20:58:06.804Z,99970.78
2023-05-15T21:00:34.201Z,99971.13
2023-05-15T21:03:01.732Z,99975.44
2023-05-15T21:05:29.249Z,99977.19
2023-05-15T21:07:56.541Z,99978.22
2023-05-15T21:10:23.845Z,99981.56
2023-05-15T21:12:56.553Z,99983.53
2023-05-15T21:15:26.251Z,99979.56
2023-05-15T21:17:53.735Z,99969.94
2023-05-15T21:20:21.369Z,99968.81
2023-05-15T21:22:48.665Z,99960.44
2023-05-15T21:25:16.506Z,99957.41
2023-05-15T21:27:43.806Z,99950.22
2023-05-15T21:30:11.633Z,99957.56
2023-05-15T21:32:39.033Z,99958.44
2023-05-15T21:35:06.513Z,99966.56
2023-05-15T21:37:33.855Z,99961.59
2023-05-15T21:40:01.980Z,99962.41
2023-05-15T21:42:31.410Z,99953.81
2023-05-15T21:44:59.127Z,99948.97
2023-05-15T21:47:26.493Z,99948.41
2023-05-15T21:49:53.848Z,99946.38
2023-05-15T21:52:21.763Z,99944.97
2023-05-15T21:54:49.165Z,99945.03
2023-05-15T21:57:17.311Z,99940.53
2023-05-15T21:59:44.660Z,99946.16
2023-05-15T22:02:12.090Z,99943.09
2023-05-15T22:04:39.648Z,99946.59
2023-05-15T22:07:07.081Z,99949.09
2023-05-15T22:09:34.556Z,99941.00
2023-05-15T22:12:01.925Z,99941.09
2023-05-15T22:14:29.530Z,99941.06
2023-05-15T22:17:02.948Z,99939.53
2023-05-15T22:19:33.530Z,99932.03
2023-05-15T22:22:01.784Z,99940.69
2023-05-15T22:24:29.259Z,99938.25
2023-05-15T22:26:56.778Z,99938.44
2023-05-15T22:29:24.223Z,99937.38
2023-05-15T22:31:51.731Z,99926.31
2023-05-15T22:34:19.126Z,99920.97
2023-05-15T22:36:46.650Z,99919.63
2023-05-15T22:39:13.953Z,99924.00
2023-05-15T22:41:44.257Z,99923.63
2023-05-15T22:44:12.253Z,99923.13
2023-05-15T22:46:40.105Z,99928.31
2023-05-15T22:49:12.650Z,99925.94
2023-05-15T22:51:40.097Z,99915.16
2023-05-15T22:54:07.434Z,99930.63
2023-05-15T22:56:34.823Z,99917.13
2023-05-15T22:59:02.118Z,99924.59
2023-05-15T23:01:31.729Z,99920.97
2023-05-15T23:03:59.140Z,99917.00
2023-05-15T23:06:26.457Z,99917.34
2023-05-15T23:08:53.918Z,99920.88
2023-05-15T23:11:21.589Z,99919.84
2023-05-15T23:13:48.980Z,99920.47
2023-05-15T23:16:16.464Z,99919.72
2023-05-15T23:18:44.166Z,99918.47
2023-05-15T23:21:11.674Z,99923.16
2023-05-15T23:23:39.231Z,99919.88
2023-05-15T23:29:41.475Z,99915.56
2023-05-15T23:32:08.870Z,99923.31
2023-05-15T23:34:36.392Z,99916.59
2023-05-15T23:37:03.850Z,99912.41
2023-05-15T23:39:31.316Z,99908.25
2023-05-15T23:42:00.171Z,99902.28
2023-05-15T23:44:27.604Z,99898.09
2023-05-15T23:46:55.098Z,99891.78
2023-05-15T23:49:22.599Z,99900.94
2023-05-15T23:51:50.207Z,99891.53
2023-05-15T23:54:17.781Z,99891.03
2023-05-15T23:56:45.581Z,99888.28
2023-05-15T23:59:13.879Z,99882.44
